Terminal Aerodrome Forecast
Issued by NWS

Home | Current Version | Previous Version | Text Only | Print | Product List | Glossary On
Versions: 1 2 3 4 5 6 7 8 9 10 11 12 13 14
000
FTUS45 KRIW 011700
TAFBPI
TAF
KBPI 011720Z 0118/0218 VRB05KT P6SM FEW150
     FM012000 25006KT P6SM SCT070
     FM020300 VRB06KT P6SM FEW080=

USA.gov is the U.S. government's official web portal to all federal, state and local government web resources and services.